Airfield :
LOGIN :

Register | Disclaimer

   EN    FR    IT 

 










Legend :    VFR   Marginal VFR   IFR   Intensive IFR   Very Intensive IFR
Visi :
Ceiling :
>= 8 km
>= 3000ft
5 to 8 km
1000 to 3000 ft
1500m to 5 km
500 to 1000 ft
800 to 1500m
200 to 500 ft
< 800m
< 200 ft
Symbols :   Thunderstorms  Fog  Heavy snow  Heavy precipitations  Wind > 20 kt
SIGMETs :     Misc.  Thunderstorms  Icing  Turbulence  Mountain Waves  Volcanic Ashes







- Airport Elevation : 203 ft
- IATA code : XMJ
- Download approach charts


LFBM - Mont-De-Marsan

CURRENT METAR :
  • 251400Z AUTO 03004KT 340V090 9999 SCT014 SCT020 BKN030 22/18 Q1013 NOSIG

EXPIRED METARs :
  • 251330Z AUTO 01005KT 9999 BKN013 BKN021 BKN034 22/18 Q1013 BECMG SCT035 SCT100
  • 251300Z AUTO 36004KT 320V070 9999 BKN010 BKN023 OVC034 21/18 Q1014 BECMG SCT035 SCT100
  • 251230Z AUTO 33003KT 290V020 9999 FEW009 BKN017 BKN023 20/18 Q1014 NOSIG
  • 251200Z AUTO 36003KT 340V050 9999 -RA BKN018/// BKN027/// OVC034/// ///TCU 20/18 Q1014 BECMG SCT035 SCT100
  • 251130Z AUTO 09003KT 040V150 9999 RA BKN015/// BKN024/// BKN054/// ///CB 20/18 Q1014 BECMG NSW SCT035 SCT100

TAF TAF LFBM
Valid from the 25 at 09:00 until the 26 at 09:00 UTC


250800Z 2509/2609 16005KT 9999 SCT015 BKN060 BKN120
TEMPO 2509/2512 4000 SHRA SCT020 BKN050TCU BKN100
PROB40
TEMPO 2509/2512 2000 TSRA SCT020 BKN050CB BKN100
BECMG 2512/2514 05010KT SCT035 SCT100
TEMPO 2516/2518 4000 SHRA BKN050TCU BKN100
BECMG 2600/2602 2000 BR BKN003
BECMG 2607/2609 9999 NSW BKN010 BKN020
No reported NOTAMs for that airfield.



MET'MAP, your aeronautical weather chart ! - Copyright ORBIFLY December 2007 - Disclaimer

ORBIFLY MET'MAP TEAM :

Programming & Development : Alexandra Zaïnal
Concept & Development : Baudouin d'Aumeries
Co-Development & Prog : Marc-Olivier Méhu
Technical & hardware support : Manuel Goepfert

Contact : metmap@orbifly.com




SOURCES & CREDITS :

   NOAA